Time;durP1;ratioP1;P1;durP2;ratioP2;P2;SDS_P1;SDS_P2;PMS_P1;PMS_P2;Temp;Humidity;BMP_temperature;BMP_pressure;BME280_temperature;BME280_humidity;BME280_pressure;Samples;Min_cycle;Max_cycle;Signal;HPM_P1;HPM_P2
2023/11/05 00:02:24;;;;;;;14.20;9.40;;;;;;;12.91;100.00;99799.13;109432;1252;61779;-56
2023/11/05 00:04:52;;;;;;;16.30;9.80;;;;;;;12.91;100.00;99796.20;109486;1251;59450;-56
2023/11/05 00:07:19;;;;;;;18.80;9.60;;;;;;;12.94;100.00;99797.02;109411;1251;74722;-58
2023/11/05 00:09:47;;;;;;;13.00;8.20;;;;;;;12.90;100.00;99789.48;109533;1251;65614;-57
2023/11/05 00:12:15;;;;;;;15.80;9.60;;;;;;;12.89;100.00;99786.16;109491;1252;72655;-59
2023/11/05 00:14:42;;;;;;;11.70;8.40;;;;;;;12.93;100.00;99779.33;109472;1251;60466;-60
2023/11/05 00:17:10;;;;;;;15.00;8.90;;;;;;;12.94;100.00;99771.95;109464;1251;59864;-65
2023/11/05 00:19:38;;;;;;;12.50;8.20;;;;;;;12.93;100.00;99762.98;109381;1253;73750;-59
2023/11/05 00:22:06;;;;;;;12.20;8.00;;;;;;;12.91;100.00;99755.52;109399;1253;66982;-59
2023/11/05 00:24:34;;;;;;;13.70;9.10;;;;;;;12.90;100.00;99745.09;109424;1252;71782;-59
2023/11/05 00:27:01;;;;;;;14.90;10.00;;;;;;;12.90;100.00;99733.54;109454;1253;61706;-57
2023/11/05 00:29:30;;;;;;;13.80;9.50;;;;;;;12.90;100.00;99721.98;109428;1251;59967;-59
2023/11/05 00:31:57;;;;;;;15.10;8.60;;;;;;;12.92;100.00;99718.29;109457;1255;73247;-58
2023/11/05 00:34:25;;;;;;;17.50;8.60;;;;;;;12.94;100.00;99713.56;109487;1251;65774;-60
2023/11/05 00:36:53;;;;;;;13.60;8.00;;;;;;;12.94;100.00;99705.15;109472;1251;72743;-58
2023/11/05 00:39:20;;;;;;;13.80;8.80;;;;;;;12.89;100.00;99697.58;109487;1251;61747;-56
2023/11/05 00:41:48;;;;;;;12.60;8.60;;;;;;;12.83;100.00;99690.17;109411;1251;58934;-58
2023/11/05 00:44:15;;;;;;;16.20;9.40;;;;;;;12.81;100.00;99677.27;109523;1250;73375;-59
2023/11/05 00:46:43;;;;;;;16.20;9.10;;;;;;;12.80;100.00;99666.97;109489;1251;66882;-58
2023/11/05 00:49:13;;;;;;;14.80;8.60;;;;;;;12.81;100.00;99667.58;109513;1251;72729;-57
2023/11/05 00:51:41;;;;;;;15.00;9.20;;;;;;;12.80;100.00;99664.95;109461;1251;61748;-63
2023/11/05 00:54:09;;;;;;;13.70;9.50;;;;;;;12.80;100.00;99661.00;109465;1251;60700;-57
2023/11/05 00:56:36;;;;;;;15.70;9.50;;;;;;;12.78;100.00;99659.50;109511;1250;73420;-57
2023/11/05 00:59:04;;;;;;;18.80;9.60;;;;;;;12.79;100.00;99663.11;109493;1250;65630;-57
2023/11/05 01:01:31;;;;;;;19.30;10.40;;;;;;;12.82;100.00;99662.54;109454;1251;72679;-58
2023/11/05 01:03:59;;;;;;;13.00;8.70;;;;;;;12.82;100.00;99661.67;109489;1250;60973;-63
2023/11/05 01:06:27;;;;;;;18.30;8.80;;;;;;;12.83;100.00;99659.50;109514;1250;60034;-56
2023/11/05 01:08:55;;;;;;;14.10;8.50;;;;;;;12.82;100.00;99661.93;109509;1250;74705;-56
2023/11/05 01:11:22;;;;;;;15.00;8.50;;;;;;;12.82;100.00;99662.81;109499;1250;65831;-58
2023/11/05 01:13:50;;;;;;;14.10;9.00;;;;;;;12.82;100.00;99667.24;109454;1250;72858;-58
2023/11/05 01:16:18;;;;;;;15.40;9.30;;;;;;;12.80;100.00;99665.88;109395;1253;60783;-58
2023/11/05 01:18:45;;;;;;;12.60;8.80;;;;;;;12.80;100.00;99673.60;109407;1254;60033;-58
2023/11/05 01:21:13;;;;;;;15.70;9.20;;;;;;;12.79;100.00;99676.79;109402;1253;73472;-56
2023/11/05 01:23:41;;;;;;;12.60;8.70;;;;;;;12.80;100.00;99669.02;109485;1249;66192;-57
2023/11/05 01:26:08;;;;;;;18.10;10.20;;;;;;;12.80;100.00;99658.23;109475;1251;71407;-61
2023/11/05 01:28:36;;;;;;;13.40;8.90;;;;;;;12.79;100.00;99642.99;109442;1250;62223;-55
2023/11/05 01:31:04;;;;;;;15.40;9.40;;;;;;;12.78;100.00;99632.23;109533;1250;60497;-58
2023/11/05 01:33:32;;;;;;;15.80;9.00;;;;;;;12.77;100.00;99644.02;109463;1251;73937;-59
2023/11/05 01:35:59;;;;;;;15.30;8.80;;;;;;;12.78;100.00;99641.77;109511;1252;65275;-58
2023/11/05 01:38:30;;;;;;;15.40;9.00;;;;;;;12.77;100.00;99648.64;109412;1251;73227;-58
2023/11/05 01:40:57;;;;;;;17.00;9.00;;;;;;;12.78;100.00;99640.23;109491;1252;61683;-60
2023/11/05 01:43:26;;;;;;;15.30;9.60;;;;;;;12.78;100.00;99632.09;109531;1251;60015;-59
2023/11/05 01:45:54;;;;;;;17.40;9.90;;;;;;;12.79;100.00;99628.70;109447;1253;74712;-59
2023/11/05 01:48:21;;;;;;;12.70;8.40;;;;;;;12.81;100.00;99630.83;109241;1253;66924;-59
2023/11/05 01:50:49;;;;;;;15.20;8.10;;;;;;;12.83;100.00;99629.20;109417;1253;71067;-56
2023/11/05 01:53:17;;;;;;;18.00;8.90;;;;;;;12.83;100.00;99628.95;109449;1252;62360;-56
2023/11/05 01:55:44;;;;;;;14.10;8.40;;;;;;;12.83;100.00;99632.47;109316;1251;59336;-57
2023/11/05 01:58:12;;;;;;;14.60;8.70;;;;;;;12.84;100.00;99630.48;109284;1253;176244;-62
2023/11/05 02:00:40;;;;;;;17.80;8.60;;;;;;;12.82;100.00;99629.54;109441;1251;65481;-57
2023/11/05 02:03:08;;;;;;;19.20;9.40;;;;;;;12.79;100.00;99619.77;109446;1252;70764;-56
2023/11/05 02:05:35;;;;;;;12.00;8.20;;;;;;;12.77;100.00;99618.07;109513;1251;60403;-55
2023/11/05 02:08:03;;;;;;;17.90;8.50;;;;;;;12.73;100.00;99612.95;109532;1251;60033;-56
2023/11/05 02:10:31;;;;;;;15.50;8.50;;;;;;;12.70;100.00;99604.37;109461;1256;75376;-56
2023/11/05 02:12:59;;;;;;;13.00;8.30;;;;;;;12.68;100.00;99599.91;109502;1252;66814;-56
2023/11/05 02:15:27;;;;;;;16.70;9.40;;;;;;;12.68;100.00;99612.25;109458;1253;73140;-56
2023/11/05 02:17:55;;;;;;;13.80;9.00;;;;;;;12.70;100.00;99611.88;109388;1252;60852;-56
2023/11/05 02:20:23;;;;;;;14.90;8.90;;;;;;;12.71;100.00;99611.76;109402;1253;58891;-60
2023/11/05 02:22:51;;;;;;;12.60;8.30;;;;;;;12.70;100.00;99605.37;109501;1253;73541;-56
2023/11/05 02:25:20;;;;;;;11.70;7.80;;;;;;;12.71;100.00;99601.30;109459;1252;67851;-56
2023/11/05 02:27:49;;;;;;;12.20;7.90;;;;;;;12.70;100.00;99608.87;109446;1253;72043;-56
2023/11/05 02:30:22;;;;;;;15.10;8.50;;;;;;;12.69;100.00;99615.43;109264;1251;60407;-62
2023/11/05 02:32:50;;;;;;;13.50;7.40;;;;;;;12.69;100.00;99631.73;109494;1256;58896;-56
2023/11/05 02:35:18;;;;;;;16.70;9.30;;;;;;;12.69;100.00;99664.19;109543;1250;73903;-56
2023/11/05 02:37:46;;;;;;;13.80;9.50;;;;;;;12.68;100.00;99709.25;109438;1250;66868;-56
2023/11/05 02:40:13;;;;;;;13.00;8.30;;;;;;;12.65;100.00;99769.20;109483;1250;71932;-61
2023/11/05 02:42:41;;;;;;;17.50;10.00;;;;;;;12.63;100.00;99797.70;109457;1251;61748;-55
2023/11/05 02:45:09;;;;;;;12.90;8.70;;;;;;;12.62;100.00;99780.29;109513;1250;60157;-56
2023/11/05 02:47:37;;;;;;;13.40;9.50;;;;;;;12.61;100.00;99728.80;109522;1250;73681;-56
2023/11/05 02:50:06;;;;;;;22.00;10.90;;;;;;;12.62;100.00;99692.84;109557;1250;65334;-56
2023/11/05 02:52:34;;;;;;;13.30;8.20;;;;;;;12.59;100.00;99701.69;109454;1251;71457;-57
2023/11/05 02:55:01;;;;;;;14.90;7.90;;;;;;;12.56;100.00;99744.27;109490;1250;61721;-55
2023/11/05 02:57:29;;;;;;;14.00;8.10;;;;;;;12.53;100.00;99780.08;109473;1250;58843;-56
2023/11/05 02:59:56;;;;;;;14.30;8.90;;;;;;;12.50;100.00;99759.98;109500;1250;74766;-56
2023/11/05 03:02:25;;;;;;;13.90;8.20;;;;;;;12.47;100.00;99732.81;109498;1250;67850;-56
2023/11/05 03:04:57;;;;;;;20.70;8.80;;;;;;;12.45;100.00;99709.65;109518;1251;71745;-55
2023/11/05 03:07:24;;;;;;;14.90;8.50;;;;;;;12.40;100.00;99720.02;109436;1251;61679;-55
2023/11/05 03:09:52;;;;;;;12.90;8.40;;;;;;;12.37;100.00;99742.48;109442;1251;59272;-55
2023/11/05 03:12:20;;;;;;;17.60;9.10;;;;;;;12.34;100.00;99736.52;109390;1256;74671;-56
2023/11/05 03:14:47;;;;;;;15.50;9.10;;;;;;;12.30;100.00;99724.27;109470;1250;66985;-55
2023/11/05 03:17:15;;;;;;;14.70;8.30;;;;;;;12.27;100.00;99719.45;109450;1251;71453;-55
2023/11/05 03:19:43;;;;;;;15.20;8.50;;;;;;;12.23;100.00;99714.04;109454;1251;61794;-56
2023/11/05 03:22:12;;;;;;;16.00;8.30;;;;;;;12.21;100.00;99710.80;109414;1251;60010;-55
2023/11/05 03:24:40;;;;;;;16.50;8.20;;;;;;;12.16;100.00;99702.33;109484;1251;74687;-55
2023/11/05 03:27:08;;;;;;;13.30;8.60;;;;;;;12.11;100.00;99694.95;109499;1256;66070;-56
2023/11/05 03:29:35;;;;;;;14.70;8.70;;;;;;;12.08;100.00;99697.81;109430;1251;71496;-56
2023/11/05 03:32:03;;;;;;;13.00;8.40;;;;;;;12.04;100.00;99688.74;109420;1255;61717;-55
2023/11/05 03:34:31;;;;;;;16.90;9.60;;;;;;;12.02;100.00;99671.19;109477;1251;58925;-55
2023/11/05 03:36:58;;;;;;;15.00;9.00;;;;;;;11.99;100.00;99691.42;109457;1252;74812;-60
2023/11/05 03:39:26;;;;;;;14.50;8.40;;;;;;;11.98;100.00;99711.23;109457;1251;65650;-55
2023/11/05 03:41:54;;;;;;;11.50;8.00;;;;;;;11.96;100.00;99697.85;109375;1251;73181;-58
2023/11/05 03:44:22;;;;;;;15.70;9.40;;;;;;;11.96;100.00;99681.10;109350;1251;61670;-56
2023/11/05 03:46:49;;;;;;;16.10;10.00;;;;;;;11.95;100.00;99666.31;109448;1251;60090;-56
2023/11/05 03:49:17;;;;;;;21.50;9.60;;;;;;;11.96;100.00;99656.18;109373;1251;73321;-56
2023/11/05 03:51:45;;;;;;;17.60;9.80;;;;;;;11.96;100.00;99657.98;109479;1251;67971;-57
2023/11/05 03:54:13;;;;;;;17.70;9.00;;;;;;;11.96;100.00;99654.95;109411;1251;72678;-55
2023/11/05 03:56:42;;;;;;;15.10;9.50;;;;;;;11.95;100.00;99651.16;109435;1254;61483;-55
2023/11/05 03:59:10;;;;;;;16.20;10.00;;;;;;;11.94;100.00;99654.42;109459;1251;59011;-56
2023/11/05 04:01:38;;;;;;;14.00;8.90;;;;;;;11.93;100.00;99655.20;109445;1251;74735;-55
2023/11/05 04:04:08;;;;;;;16.60;9.50;;;;;;;11.93;100.00;99660.33;109367;1251;65538;-55
2023/11/05 04:06:36;;;;;;;15.80;9.20;;;;;;;11.94;100.00;99667.05;109420;1251;72704;-57
2023/11/05 04:09:04;;;;;;;16.70;8.50;;;;;;;11.93;100.00;99696.17;109336;1251;62634;-55
2023/11/05 04:11:31;;;;;;;16.00;9.00;;;;;;;11.92;100.00;99708.08;109433;1251;58923;-58
2023/11/05 04:13:59;;;;;;;12.30;9.00;;;;;;;11.91;100.00;99678.10;109410;1252;74506;-56
2023/11/05 04:16:26;;;;;;;15.10;9.40;;;;;;;11.90;100.00;99654.66;109448;1251;66199;-56
2023/11/05 04:18:56;;;;;;;13.80;8.60;;;;;;;11.87;100.00;99656.77;109410;1251;72397;-55
2023/11/05 04:21:23;;;;;;;11.90;8.40;;;;;;;11.83;100.00;99663.69;109388;1251;60613;-55
2023/11/05 04:23:51;;;;;;;12.00;8.60;;;;;;;11.81;100.00;99659.05;109462;1253;60051;-55
2023/11/05 04:26:18;;;;;;;13.20;8.30;;;;;;;11.81;100.00;99655.11;109461;1251;73724;-55
2023/11/05 04:28:46;;;;;;;18.10;8.80;;;;;;;11.80;100.00;99664.08;109486;1251;66826;-55
2023/11/05 04:31:13;;;;;;;22.90;8.90;;;;;;;11.81;100.00;99639.69;109504;1251;71416;-55
2023/11/05 04:33:41;;;;;;;13.40;8.80;;;;;;;11.82;100.00;99619.69;109405;1251;60965;-62
2023/11/05 04:36:09;;;;;;;13.60;9.40;;;;;;;11.83;100.00;99643.20;109424;1252;59111;-55
2023/11/05 04:38:37;;;;;;;12.50;8.00;;;;;;;11.83;100.00;99657.98;109472;1251;73390;-55
2023/11/05 04:41:05;;;;;;;16.90;9.00;;;;;;;11.82;100.00;99641.09;109464;1251;65505;-55
2023/11/05 04:43:32;;;;;;;16.80;9.00;;;;;;;11.80;100.00;99614.67;109435;1251;72666;-55
2023/11/05 04:46:00;;;;;;;15.90;9.40;;;;;;;11.78;100.00;99628.41;109386;1251;60452;-56
2023/11/05 04:48:28;;;;;;;15.90;8.30;;;;;;;11.78;100.00;99652.77;109463;1251;60035;-55
2023/11/05 04:50:55;;;;;;;14.10;7.50;;;;;;;11.79;100.00;99653.64;109441;1251;75203;-55
2023/11/05 04:53:23;;;;;;;13.90;8.20;;;;;;;11.81;100.00;99626.71;109487;1251;66809;-56
2023/11/05 04:55:51;;;;;;;15.30;8.30;;;;;;;11.85;100.00;99609.38;109475;1251;72396;-60
2023/11/05 04:58:18;;;;;;;18.50;9.30;;;;;;;11.87;100.00;99617.08;109400;1251;61703;-56
2023/11/05 05:00:46;;;;;;;17.90;8.10;;;;;;;11.89;100.00;99601.16;109417;1251;60075;-55
2023/11/05 05:03:13;;;;;;;16.00;8.70;;;;;;;11.88;100.00;99591.44;109467;1251;74632;-55
2023/11/05 05:05:41;;;;;;;15.00;8.60;;;;;;;11.88;100.00;99600.73;109453;1251;67551;-55
2023/11/05 05:08:09;;;;;;;15.40;8.30;;;;;;;11.89;100.00;99607.92;109380;1251;71318;-56
2023/11/05 05:10:37;;;;;;;11.30;7.90;;;;;;;11.90;100.00;99608.12;109441;1251;62139;-56
2023/11/05 05:13:05;;;;;;;14.60;8.90;;;;;;;11.91;100.00;99610.91;109448;1251;59606;-57
2023/11/05 05:15:33;;;;;;;14.60;8.50;;;;;;;11.92;100.00;99603.27;109419;1254;74681;-55
2023/11/05 05:18:01;;;;;;;13.40;8.50;;;;;;;11.94;100.00;99599.10;109436;1251;65625;-55
2023/11/05 05:20:28;;;;;;;12.80;7.70;;;;;;;11.96;100.00;99595.39;109416;1251;72643;-59
2023/11/05 05:22:56;;;;;;;14.30;8.30;;;;;;;11.98;100.00;99586.22;109415;1254;61720;-55
2023/11/05 05:25:24;;;;;;;14.70;9.00;;;;;;;12.00;100.00;99569.92;109482;1251;59993;-55
2023/11/05 05:27:51;;;;;;;17.70;8.40;;;;;;;12.01;100.00;99552.17;109483;1250;74721;-55
2023/11/05 05:30:19;;;;;;;15.30;8.00;;;;;;;12.02;100.00;99543.13;109422;1251;66264;-61
2023/11/05 05:32:47;;;;;;;13.90;7.70;;;;;;;12.04;100.00;99560.52;109382;1251;72667;-55
2023/11/05 05:35:14;;;;;;;10.10;6.40;;;;;;;12.07;100.00;99552.46;109409;1251;60474;-55
2023/11/05 05:37:42;;;;;;;15.80;7.90;;;;;;;12.10;100.00;99549.02;109426;1251;59439;-55
2023/11/05 05:40:10;;;;;;;13.90;8.10;;;;;;;12.14;100.00;99554.86;109379;1251;73401;-59
2023/11/05 05:42:38;;;;;;;13.10;7.80;;;;;;;12.20;100.00;99557.98;109397;1254;66507;-55
2023/11/05 05:45:06;;;;;;;13.60;8.00;;;;;;;12.24;100.00;99543.95;109389;1254;72714;-55
2023/11/05 05:47:33;;;;;;;12.60;6.80;;;;;;;12.29;100.00;99559.80;109372;1253;60469;-56
2023/11/05 05:50:02;;;;;;;11.20;6.90;;;;;;;12.34;100.00;99553.73;109350;1252;59255;-55
2023/11/05 05:52:30;;;;;;;14.70;9.00;;;;;;;12.37;100.00;99559.02;109281;1252;74673;-56
2023/11/05 05:54:58;;;;;;;9.30;7.00;;;;;;;12.44;100.00;99572.73;109432;1251;65735;-55
2023/11/05 05:57:25;;;;;;;13.40;7.80;;;;;;;12.51;100.00;99579.02;109440;1251;72416;-56
2023/11/05 05:59:53;;;;;;;15.70;9.60;;;;;;;12.59;100.00;99579.42;109383;1251;60155;-55
2023/11/05 06:02:20;;;;;;;12.30;7.50;;;;;;;12.66;100.00;99586.13;109413;1251;59183;-58
2023/11/05 06:04:48;;;;;;;14.50;8.00;;;;;;;12.75;100.00;99589.27;109407;1251;74753;-56
2023/11/05 06:07:16;;;;;;;15.20;9.10;;;;;;;12.85;100.00;99577.02;109386;1252;66900;-55
2023/11/05 06:09:43;;;;;;;13.80;8.30;;;;;;;12.93;100.00;99584.33;109347;1251;71783;-55
2023/11/05 06:12:11;;;;;;;17.60;7.90;;;;;;;13.02;100.00;99576.29;109358;1251;60413;-57
2023/11/05 06:14:39;;;;;;;17.50;8.40;;;;;;;13.11;100.00;99549.76;109389;1251;58965;-55
2023/11/05 06:17:15;;;;;;;18.00;8.30;;;;;;;13.17;100.00;99530.46;109427;1254;74665;-55
2023/11/05 06:19:43;;;;;;;15.60;8.50;;;;;;;13.22;100.00;99536.73;109395;1251;66307;-56
2023/11/05 06:22:11;;;;;;;14.20;7.60;;;;;;;13.30;100.00;99533.64;109333;1253;72755;-57
2023/11/05 06:24:39;;;;;;;14.10;7.70;;;;;;;13.50;100.00;99531.16;109352;1254;63013;-57
2023/11/05 06:27:07;;;;;;;12.10;7.40;;;;;;;13.92;100.00;99530.39;109427;1251;60090;-56
2023/11/05 06:29:34;;;;;;;12.50;7.60;;;;;;;14.46;100.00;99520.70;109394;1250;74677;-57
2023/11/05 06:32:02;;;;;;;13.20;8.50;;;;;;;15.01;100.00;99522.43;109346;1256;66142;-57
2023/11/05 06:34:30;;;;;;;11.50;6.90;;;;;;;15.52;100.00;99513.59;109351;1254;72676;-57
2023/11/05 06:37:02;;;;;;;13.50;7.70;;;;;;;15.88;100.00;99494.90;109317;1251;58969;-55
2023/11/05 06:39:30;;;;;;;9.40;6.50;;;;;;;16.12;100.00;99476.65;109289;1253;60100;-56
2023/11/05 06:41:57;;;;;;;12.30;7.50;;;;;;;16.48;100.00;99469.15;109397;1252;73333;-55
2023/11/05 06:44:25;;;;;;;12.10;6.70;;;;;;;16.84;100.00;99448.20;109321;1252;65502;-61
2023/11/05 06:46:52;;;;;;;13.00;7.30;;;;;;;17.06;100.00;99426.84;109354;1252;72772;-57
2023/11/05 06:49:20;;;;;;;10.60;6.80;;;;;;;17.13;100.00;99412.70;109330;1253;58980;-56
2023/11/05 06:51:48;;;;;;;9.50;6.90;;;;;;;17.19;100.00;99403.02;109324;1254;58903;-56
2023/11/05 06:54:16;;;;;;;9.70;7.10;;;;;;;17.22;100.00;99384.61;109356;1253;74708;-55
2023/11/05 06:56:44;;;;;;;14.90;6.70;;;;;;;17.34;100.00;99374.08;109321;1254;66469;-57
2023/11/05 06:59:12;;;;;;;10.20;6.90;;;;;;;17.50;100.00;99374.60;109360;1252;72681;-55
2023/11/05 07:01:40;;;;;;;10.00;5.70;;;;;;;17.73;100.00;99372.08;109376;1252;60585;-55
2023/11/05 07:04:07;;;;;;;10.30;6.60;;;;;;;18.08;100.00;99363.11;109431;1253;59469;-56
2023/11/05 07:06:35;;;;;;;12.80;8.10;;;;;;;18.32;100.00;99366.11;109328;1252;74662;-57
2023/11/05 07:09:03;;;;;;;10.40;6.10;;;;;;;18.41;100.00;99362.95;109355;1251;67048;-56
2023/11/05 07:11:31;;;;;;;8.70;5.80;;;;;;;18.54;100.00;99353.66;109418;1251;71368;-57
2023/11/05 07:13:59;;;;;;;8.40;5.60;;;;;;;18.68;100.00;99351.20;109366;1251;60307;-55
2023/11/05 07:16:26;;;;;;;9.70;6.00;;;;;;;18.82;100.00;99359.56;109399;1251;60050;-58
2023/11/05 07:18:54;;;;;;;8.90;4.90;;;;;;;19.09;100.00;99357.00;109419;1251;74810;-56
2023/11/05 07:21:22;;;;;;;10.70;5.60;;;;;;;19.41;100.00;99356.22;109427;1251;66969;-56
2023/11/05 07:23:49;;;;;;;12.50;5.80;;;;;;;19.70;100.00;99357.16;109428;1251;72779;-55
2023/11/05 07:26:17;;;;;;;8.60;5.10;;;;;;;19.98;100.00;99350.40;109410;1251;60099;-61
2023/11/05 07:28:45;;;;;;;7.60;4.90;;;;;;;20.33;100.00;99344.78;109263;1253;60679;-56
2023/11/05 07:31:16;;;;;;;8.50;5.40;;;;;;;20.67;100.00;99348.41;109403;1252;73362;-56
2023/11/05 07:33:44;;;;;;;10.90;6.00;;;;;;;20.94;100.00;99349.38;109339;1251;66075;-56
2023/11/05 07:36:12;;;;;;;7.90;5.30;;;;;;;21.08;100.00;99350.83;109396;1251;71129;-61
2023/11/05 07:38:39;;;;;;;10.30;5.20;;;;;;;21.21;100.00;99350.92;109403;1252;60084;-56
2023/11/05 07:41:07;;;;;;;8.50;5.20;;;;;;;21.41;100.00;99351.40;109519;1251;59403;-56
2023/11/05 07:43:35;;;;;;;9.70;5.60;;;;;;;21.38;100.00;99361.85;109455;1251;74692;-55
2023/11/05 07:46:02;;;;;;;11.30;5.80;;;;;;;21.03;100.00;99357.39;109462;1251;66949;-56
2023/11/05 07:48:30;;;;;;;9.10;5.20;;;;;;;20.66;100.00;99361.69;109370;1251;71464;-56
2023/11/05 07:50:57;;;;;;;9.70;5.20;;;;;;;20.44;100.00;99360.16;109398;1251;59048;-55
2023/11/05 07:53:25;;;;;;;9.00;5.10;;;;;;;20.25;100.00;99371.44;109432;1251;58916;-55
2023/11/05 07:55:53;;;;;;;8.80;4.90;;;;;;;20.21;100.00;99358.05;109474;1251;73907;-56
2023/11/05 07:58:21;;;;;;;9.80;6.20;;;;;;;20.22;100.00;99362.70;109435;1251;66159;-60
2023/11/05 08:00:50;;;;;;;11.10;6.80;;;;;;;20.15;100.00;99358.76;109424;1251;72680;-58
2023/11/05 08:03:18;;;;;;;10.30;7.20;;;;;;;20.08;100.00;99356.96;109432;1251;60462;-56
2023/11/05 08:05:46;;;;;;;12.40;7.60;;;;;;;20.23;100.00;99367.58;109424;1251;61084;-56
2023/11/05 08:08:15;;;;;;;9.80;6.00;;;;;;;20.39;100.00;99360.11;109443;1251;76992;-56
2023/11/05 08:10:43;;;;;;;7.80;5.30;;;;;;;20.26;100.00;99357.25;109379;1252;69235;-55
2023/11/05 08:13:10;;;;;;;10.30;4.80;;;;;;;20.00;100.00;99350.41;109445;1250;72063;-56
2023/11/05 08:15:38;;;;;;;8.80;4.90;;;;;;;19.97;100.00;99348.98;109423;1251;60282;-55
2023/11/05 08:18:07;;;;;;;9.40;4.90;;;;;;;20.11;100.00;99350.40;109380;1251;60329;-55
2023/11/05 08:20:34;;;;;;;7.30;4.90;;;;;;;20.16;100.00;99342.66;109313;1252;73423;-56
2023/11/05 08:23:02;;;;;;;10.00;5.90;;;;;;;19.98;100.00;99350.10;109468;1251;67881;-56
2023/11/05 08:25:30;;;;;;;10.90;5.60;;;;;;;19.64;100.00;99332.77;109374;1251;73112;-55
2023/11/05 08:27:57;;;;;;;10.40;6.50;;;;;;;19.24;100.00;99331.40;109436;1251;58922;-55
2023/11/05 08:30:27;;;;;;;8.70;6.20;;;;;;;18.86;100.00;99324.04;109441;1251;60218;-56
2023/11/05 08:32:54;;;;;;;10.30;5.50;;;;;;;18.51;100.00;99299.56;109417;1251;72917;-56
2023/11/05 08:35:22;;;;;;;12.70;6.30;;;;;;;18.28;100.00;99300.94;109397;1251;65663;-57
2023/11/05 08:37:50;;;;;;;10.70;5.80;;;;;;;18.15;100.00;99312.01;109411;1251;72775;-56
2023/11/05 08:40:18;;;;;;;9.90;6.20;;;;;;;18.05;100.00;99304.93;109337;1251;59037;-61
2023/11/05 08:42:47;;;;;;;14.10;5.60;;;;;;;17.93;100.00;99275.44;109434;1251;60095;-56
2023/11/05 08:45:15;;;;;;;10.40;6.10;;;;;;;17.83;100.00;99264.93;109481;1251;74691;-56
2023/11/05 08:47:43;;;;;;;13.70;6.60;;;;;;;17.72;100.00;99315.49;109440;1251;67430;-56
2023/11/05 08:50:11;;;;;;;16.50;6.50;;;;;;;17.68;100.00;99340.81;109405;1251;72683;-56
2023/11/05 08:52:38;;;;;;;13.20;7.30;;;;;;;17.65;100.00;99338.34;109416;1251;59096;-56
2023/11/05 08:55:10;;;;;;;11.20;6.50;;;;;;;17.66;100.00;99333.96;109426;1251;59061;-56
2023/11/05 08:57:37;;;;;;;;;;;;;;;17.67;100.00;99343.82;109468;1251;75136;-56
2023/11/05 09:00:12;;;;;;;13.80;6.80;;;;;;;17.69;100.00;99331.59;109459;1251;67292;-55
2023/11/05 09:02:40;;;;;;;15.10;7.40;;;;;;;17.72;100.00;99317.52;109449;1250;73032;-56
2023/11/05 09:05:08;;;;;;;13.50;7.40;;;;;;;17.79;100.00;99314.73;109415;1251;60125;-56
2023/11/05 09:07:36;;;;;;;15.00;8.50;;;;;;;17.89;100.00;99304.52;109458;1251;59278;-56
2023/11/05 09:10:04;;;;;;;13.50;7.60;;;;;;;18.09;100.00;99294.61;109402;1251;75176;-56
2023/11/05 09:12:32;;;;;;;15.30;6.90;;;;;;;18.32;100.00;99284.33;109465;1251;65673;-55
2023/11/05 09:15:00;;;;;;;9.40;5.60;;;;;;;18.51;100.00;99290.16;109440;1251;72726;-56
2023/11/05 09:17:27;;;;;;;10.20;6.50;;;;;;;18.71;100.00;99295.16;109436;1251;62518;-56
2023/11/05 09:19:56;;;;;;;15.40;7.00;;;;;;;18.79;100.00;99285.42;109419;1251;60063;-61
2023/11/05 09:22:23;;;;;;;13.10;7.20;;;;;;;18.84;100.00;99273.50;109423;1251;75559;-55
2023/11/05 09:24:51;;;;;;;9.70;6.30;;;;;;;18.89;100.00;99280.79;109487;1251;69895;-56
2023/11/05 09:27:19;;;;;;;12.70;6.70;;;;;;;18.92;100.00;99284.71;109485;1251;73558;-56
2023/11/05 09:29:46;;;;;;;12.60;6.80;;;;;;;18.89;100.00;99272.71;109448;1251;59520;-56
2023/11/05 09:32:14;;;;;;;11.00;6.50;;;;;;;18.89;100.00;99279.27;109379;1251;62545;-57
2023/11/05 09:34:42;;;;;;;13.10;7.00;;;;;;;18.99;100.00;99272.84;109489;1251;75925;-56
2023/11/05 09:37:10;;;;;;;14.90;8.00;;;;;;;19.11;100.00;99266.66;109469;1251;68861;-56
2023/11/05 09:39:41;;;;;;;10.60;5.90;;;;;;;19.22;100.00;99265.98;109468;1251;72662;-56
2023/11/05 09:42:09;;;;;;;10.90;6.30;;;;;;;19.36;100.00;99252.41;109402;1251;59239;-57
2023/11/05 09:44:36;;;;;;;12.50;6.40;;;;;;;19.44;100.00;99246.48;109338;1251;59935;-56
2023/11/05 09:47:04;;;;;;;12.30;7.70;;;;;;;19.44;100.00;99258.59;109339;1251;74680;-58
2023/11/05 09:49:32;;;;;;;11.00;6.70;;;;;;;19.47;100.00;99277.19;109346;1251;67296;-56
2023/11/05 09:52:00;;;;;;;11.70;7.60;;;;;;;19.44;100.00;99276.77;109383;1251;74785;-62
2023/11/05 09:54:27;;;;;;;13.40;7.30;;;;;;;19.38;100.00;99264.55;109273;1255;60168;-58
2023/11/05 09:56:55;;;;;;;18.60;8.10;;;;;;;19.32;100.00;99264.72;109445;1251;58886;-56
2023/11/05 09:59:23;;;;;;;11.40;7.60;;;;;;;19.25;100.00;99274.17;109465;1250;74803;-56
2023/11/05 10:01:54;;;;;;;12.20;7.20;;;;;;;19.15;100.00;99273.65;109360;1251;66995;-56
2023/11/05 10:04:22;;;;;;;14.70;7.60;;;;;;;19.08;100.00;99265.40;109414;1251;71286;-55
2023/11/05 10:06:50;;;;;;;12.40;6.90;;;;;;;19.01;100.00;99272.42;109430;1251;59829;-55
2023/11/05 10:09:18;;;;;;;13.30;7.00;;;;;;;18.95;100.00;99279.80;109448;1251;60033;-57
2023/11/05 10:11:46;;;;;;;11.80;6.40;;;;;;;18.96;100.00;99265.33;109370;1251;75406;-57
2023/11/05 10:14:15;;;;;;;10.70;6.10;;;;;;;19.00;100.00;99275.27;109509;1251;67907;-56
2023/11/05 10:16:44;;;;;;;13.50;6.60;;;;;;;19.03;100.00;99276.23;109454;1251;74822;-56
2023/11/05 10:19:11;;;;;;;14.00;7.40;;;;;;;19.08;100.00;99270.41;109332;1251;60661;-55
2023/11/05 10:21:39;;;;;;;14.10;7.00;;;;;;;19.10;100.00;99282.48;109387;1251;61264;-56
2023/11/05 10:24:07;;;;;;;16.50;6.50;;;;;;;19.10;100.00;99271.06;109404;1251;76610;-56
2023/11/05 10:26:36;;;;;;;13.50;6.70;;;;;;;19.05;100.00;99265.23;109478;1251;68845;-56
2023/11/05 10:29:08;;;;;;;12.20;7.40;;;;;;;18.96;100.00;99273.27;109421;1251;74955;-57
2023/11/05 10:31:36;;;;;;;11.90;6.80;;;;;;;18.88;100.00;99270.91;109385;1252;60128;-61
2023/11/05 10:34:04;;;;;;;13.90;6.60;;;;;;;18.79;100.00;99256.23;109276;1251;62704;-56
2023/11/05 10:36:32;;;;;;;12.50;6.20;;;;;;;18.70;100.00;99253.23;109358;1251;75093;-57
2023/11/05 10:38:59;;;;;;;8.00;5.00;;;;;;;18.59;100.00;99246.44;109472;1251;67971;-56
2023/11/05 10:41:27;;;;;;;14.10;6.70;;;;;;;18.50;100.00;99254.27;109483;1250;74795;-56
2023/11/05 10:43:55;;;;;;;10.90;6.00;;;;;;;18.43;100.00;99268.13;109335;1249;60065;-57
2023/11/05 10:46:22;;;;;;;11.20;5.50;;;;;;;18.31;100.00;99258.64;109490;1250;59287;-57
2023/11/05 10:48:50;;;;;;;11.40;5.70;;;;;;;18.16;100.00;99235.58;109529;1250;73410;-58
2023/11/05 10:51:23;;;;;;;14.50;7.70;;;;;;;18.02;100.00;99216.68;109511;1249;66944;-56
2023/11/05 10:53:52;;;;;;;14.30;9.00;;;;;;;17.89;100.00;99205.70;109424;1251;71636;-56
2023/11/05 10:56:33;;;;;;;16.20;7.60;;;;;;;17.77;100.00;99198.73;109531;1250;60429;-56
2023/11/05 10:59:04;;;;;;;13.80;7.90;;;;;;;17.66;100.00;99218.46;109560;1250;60089;-57
2023/11/05 11:01:35;;;;;;;11.90;6.90;;;;;;;17.59;100.00;99227.27;109535;1252;74756;-56
2023/11/05 11:04:05;;;;;;;15.00;7.00;;;;;;;17.55;100.00;99230.68;109340;1252;66954;-57
2023/11/05 11:06:32;;;;;;;13.90;6.90;;;;;;;17.51;100.00;99242.19;109532;1251;72727;-57
2023/11/05 11:09:05;;;;;;;12.80;6.40;;;;;;;17.46;100.00;99249.54;109505;1249;60112;-57
2023/11/05 11:11:35;;;;;;;10.10;6.50;;;;;;;17.40;100.00;99247.63;109510;1250;59126;-62
2023/11/05 11:14:03;;;;;;;12.00;6.20;;;;;;;17.34;100.00;99252.28;109483;1250;74730;-59